createdAt,value
2023-02-12T00:09:25.893Z,5.27
2023-02-12T00:26:19.376Z,5.22
2023-02-12T00:33:59.409Z,5.17
2023-02-12T05:41:23.499Z,4.84
2023-02-12T05:44:17.875Z,4.89
2023-02-12T05:46:44.692Z,4.93
2023-02-12T05:49:29.476Z,5.03
2023-02-12T05:52:04.745Z,4.96
2023-02-12T05:54:31.397Z,5.07
2023-02-12T05:56:58.032Z,5.06
2023-02-12T05:59:25.204Z,5.07
2023-02-12T06:01:52.784Z,5.06
2023-02-12T06:07:19.173Z,5.00
2023-02-12T06:09:46.988Z,4.96
2023-02-12T06:12:14.241Z,4.99
2023-02-12T06:14:42.488Z,4.91
2023-02-12T06:17:09.537Z,4.87
2023-02-12T06:19:37.290Z,4.95
2023-02-12T06:22:04.999Z,4.93
2023-02-12T06:24:33.012Z,4.91
2023-02-12T06:26:59.732Z,4.92
2023-02-12T06:29:26.727Z,4.91
2023-02-12T06:31:53.583Z,4.91
2023-02-12T06:34:20.354Z,4.90
2023-02-12T06:36:48.050Z,4.89
2023-02-12T06:39:16.620Z,4.86
2023-02-12T06:41:44.137Z,4.86
2023-02-12T06:44:11.951Z,4.85
2023-02-12T06:46:39.224Z,4.91
2023-02-12T06:49:05.977Z,4.84
2023-02-12T06:51:32.704Z,4.92
2023-02-12T06:53:59.476Z,4.87
2023-02-12T06:56:26.848Z,4.87
2023-02-12T06:58:56.392Z,4.82
2023-02-12T07:01:26.954Z,4.83
2023-02-12T07:03:56.513Z,4.80
2023-02-12T07:06:24.070Z,4.78
2023-02-12T07:08:51.240Z,4.78
2023-02-12T07:11:18.650Z,4.77
2023-02-12T07:13:45.810Z,4.78
2023-02-12T07:16:15.779Z,4.81
2023-02-12T07:18:43.630Z,4.82
2023-02-12T07:21:12.190Z,4.85
2023-02-12T07:23:40.579Z,4.86
2023-02-12T07:26:13.028Z,4.91
2023-02-12T07:28:40.478Z,4.92
2023-02-12T07:31:09.661Z,4.97
2023-02-12T07:33:37.074Z,4.99
2023-02-12T07:36:06.205Z,5.06
2023-02-12T07:38:36.180Z,5.09
2023-02-12T07:41:16.074Z,5.08
2023-02-12T07:43:44.321Z,5.08
2023-02-12T07:46:17.303Z,5.13
2023-02-12T07:48:45.121Z,5.19
2023-02-12T07:51:14.822Z,5.23
2023-02-12T07:53:42.019Z,5.28
2023-02-12T07:56:14.164Z,5.34
2023-02-12T07:58:42.741Z,5.30
2023-02-12T08:01:29.719Z,5.28
2023-02-12T08:04:02.186Z,5.35
2023-02-12T08:06:31.539Z,5.37
2023-02-12T08:09:00.396Z,5.33
2023-02-12T08:11:28.580Z,5.27
2023-02-12T08:13:55.765Z,5.26
2023-02-12T08:16:24.427Z,5.23
2023-02-12T08:18:51.829Z,5.27
2023-02-12T08:21:26.582Z,5.26
2023-02-12T08:23:59.528Z,5.33
2023-02-12T08:26:29.153Z,5.38
2023-02-12T08:29:04.221Z,5.42
2023-02-12T08:31:36.139Z,5.39
2023-02-12T08:34:03.259Z,5.41
2023-02-12T08:36:40.288Z,5.42
2023-02-12T08:39:08.328Z,5.45
2023-02-12T08:41:35.392Z,5.46
2023-02-12T08:44:03.792Z,5.47
2023-02-12T08:46:33.941Z,5.44
2023-02-12T08:49:03.195Z,5.46
2023-02-12T08:51:32.919Z,5.51
2023-02-12T08:54:01.938Z,5.56
2023-02-12T08:56:30.311Z,5.58
2023-02-12T08:59:01.329Z,5.60
2023-02-12T09:01:30.228Z,5.63
2023-02-12T09:03:57.184Z,5.62
2023-02-12T09:06:25.578Z,5.65
2023-02-12T09:08:53.560Z,5.74
2023-02-12T09:11:32.798Z,5.78
2023-02-12T09:14:01.612Z,5.79
2023-02-12T09:16:29.784Z,5.75
2023-02-12T09:18:57.113Z,5.79
2023-02-12T09:21:24.266Z,5.81
2023-02-12T09:23:52.370Z,5.91
2023-02-12T09:26:21.826Z,5.88
2023-02-12T09:28:50.195Z,5.85
2023-02-12T09:31:23.321Z,5.82
2023-02-12T09:33:53.374Z,5.83
2023-02-12T09:36:21.694Z,5.82
2023-02-12T09:38:49.427Z,5.89
2023-02-12T09:41:24.471Z,5.92
2023-02-12T09:44:03.501Z,5.93
2023-02-12T09:46:33.553Z,6.05
2023-02-12T09:49:15.406Z,6.19
2023-02-12T09:51:44.341Z,6.11
2023-02-12T09:54:14.750Z,6.15
2023-02-12T09:56:45.122Z,6.17
2023-02-12T09:59:13.450Z,6.16
2023-02-12T10:01:40.211Z,6.11
2023-02-12T10:04:07.246Z,6.09
2023-02-12T10:06:42.101Z,6.08
2023-02-12T10:09:45.438Z,6.05
2023-02-12T10:12:36.573Z,6.06
2023-02-12T10:15:32.646Z,6.05
2023-02-12T10:18:22.235Z,6.01
2023-02-12T10:21:10.744Z,5.95
2023-02-12T10:23:57.143Z,5.90
2023-02-12T10:26:32.160Z,5.86
2023-02-12T10:29:05.850Z,5.89
2023-02-12T10:31:36.349Z,5.90
2023-02-12T10:34:16.408Z,5.93
2023-02-12T10:36:45.061Z,5.93
2023-02-12T10:39:14.873Z,6.00
2023-02-12T10:41:47.957Z,5.93
2023-02-12T10:44:14.762Z,6.00
2023-02-12T10:46:41.626Z,6.04
2023-02-12T10:49:12.439Z,6.18
2023-02-12T10:51:41.674Z,6.08
2023-02-12T10:54:44.003Z,6.08
2023-02-12T10:57:14.572Z,6.11
2023-02-12T10:59:43.595Z,6.07
2023-02-12T11:02:31.459Z,6.13
2023-02-12T11:04:59.884Z,6.12
2023-02-12T11:07:27.910Z,6.12
2023-02-12T11:09:56.305Z,6.14
2023-02-12T11:12:38.671Z,6.10
2023-02-12T11:15:15.714Z,6.07
2023-02-12T11:17:44.943Z,6.06
2023-02-12T11:20:17.860Z,6.05
2023-02-12T11:23:00.013Z,6.04
2023-02-12T11:25:35.224Z,6.00
2023-02-12T11:28:17.948Z,5.98
2023-02-12T11:31:01.518Z,5.93
2023-02-12T11:33:34.886Z,5.85
2023-02-12T11:36:19.791Z,5.79
2023-02-12T11:38:52.514Z,5.81
2023-02-12T11:41:28.435Z,5.87
2023-02-12T11:43:55.206Z,5.96
2023-02-12T11:46:24.722Z,6.01
2023-02-12T11:48:53.139Z,6.00
2023-02-12T11:51:22.354Z,5.97
2023-02-12T11:53:51.613Z,6.06
2023-02-12T11:56:18.679Z,6.05
2023-02-12T11:58:47.564Z,6.09
2023-02-12T12:01:22.562Z,6.01
2023-02-12T12:04:06.694Z,5.90
2023-02-12T12:06:41.236Z,5.94
2023-02-12T12:09:25.213Z,5.94
2023-02-12T12:11:59.408Z,5.88
2023-02-12T12:14:59.783Z,5.97
2023-02-12T12:17:55.423Z,6.12
2023-02-12T12:20:25.423Z,6.29
2023-02-12T12:23:32.467Z,6.38
2023-02-12T12:26:21.380Z,6.44
2023-02-12T12:28:52.667Z,6.56
2023-02-12T12:31:27.784Z,6.67
2023-02-12T12:34:36.125Z,6.77
2023-02-12T12:37:02.889Z,6.70
2023-02-12T12:39:55.685Z,6.71
2023-02-12T12:42:36.246Z,6.74
2023-02-12T12:45:31.026Z,6.82
2023-02-12T12:48:22.840Z,6.75
2023-02-12T12:50:59.018Z,6.80
2023-02-12T12:53:41.042Z,6.83
2023-02-12T12:56:07.995Z,6.83
2023-02-12T12:58:40.606Z,6.88
2023-02-12T13:01:25.047Z,7.07
2023-02-12T13:04:19.589Z,7.05
2023-02-12T13:06:53.676Z,7.14
2023-02-12T13:09:30.089Z,7.08
2023-02-12T13:12:20.003Z,7.14
2023-02-12T13:14:58.863Z,7.30
2023-02-12T13:17:41.523Z,7.27
2023-02-12T13:20:26.866Z,7.17
2023-02-12T13:22:57.138Z,7.20
2023-02-12T13:25:35.878Z,7.19
2023-02-12T13:28:03.569Z,7.16
2023-02-12T13:30:34.266Z,7.20
2023-02-12T13:33:27.705Z,7.22
2023-02-12T13:36:01.081Z,7.27
2023-02-12T13:38:35.159Z,7.50
2023-02-12T13:41:06.171Z,7.68
2023-02-12T13:43:51.928Z,7.59
2023-02-12T13:46:41.322Z,7.58
2023-02-12T13:49:39.152Z,7.58
2023-02-12T13:52:11.338Z,7.60
2023-02-12T13:54:44.198Z,7.47
2023-02-12T13:57:16.844Z,7.41
2023-02-12T13:59:49.266Z,7.36
2023-02-12T14:02:27.695Z,7.28
2023-02-12T14:05:01.078Z,7.25
2023-02-12T14:07:45.973Z,7.27
2023-02-12T14:10:34.725Z,7.28
2023-02-12T14:13:22.549Z,7.32
2023-02-12T14:15:52.188Z,7.43
2023-02-12T14:18:32.760Z,7.35
2023-02-12T14:21:11.608Z,7.33
2023-02-12T14:23:39.946Z,7.26
2023-02-12T14:26:11.113Z,7.26
2023-02-12T14:29:04.968Z,7.58
2023-02-12T14:31:33.329Z,7.61
2023-02-12T14:34:06.397Z,7.60
2023-02-12T14:36:33.164Z,7.59
2023-02-12T14:39:03.922Z,7.60
2023-02-12T14:41:41.789Z,7.60
2023-02-12T14:44:17.759Z,7.57
2023-02-12T14:46:47.058Z,7.58
2023-02-12T14:49:21.930Z,7.55
2023-02-12T14:52:06.738Z,7.46
2023-02-12T14:54:51.514Z,7.35
2023-02-12T14:57:34.031Z,7.38
2023-02-12T15:00:16.717Z,7.25
2023-02-12T15:03:12.770Z,7.24
2023-02-12T15:05:56.640Z,7.30
2023-02-12T15:08:36.320Z,7.25
2023-02-12T15:11:28.222Z,7.16
2023-02-12T15:13:59.270Z,7.12
2023-02-12T15:16:49.924Z,7.11
2023-02-12T15:19:39.315Z,7.10
2023-02-12T15:22:36.703Z,7.11
2023-02-12T15:25:26.436Z,7.10
2023-02-12T15:28:22.259Z,7.09
2023-02-12T15:30:49.239Z,7.05
2023-02-12T15:33:28.423Z,7.12
2023-02-12T15:35:55.998Z,7.08
2023-02-12T15:38:33.806Z,7.08
2023-02-12T15:41:01.809Z,7.09
2023-02-12T15:43:31.999Z,7.13
2023-02-12T15:45:59.030Z,7.08
2023-02-12T15:48:31.728Z,7.03
2023-02-12T15:51:01.417Z,7.02
2023-02-12T15:53:32.225Z,7.00
2023-02-12T15:55:59.526Z,6.93
2023-02-12T15:58:29.631Z,6.97
2023-02-12T16:01:02.195Z,6.96
2023-02-12T16:03:34.815Z,6.95
2023-02-12T16:06:16.929Z,6.96
2023-02-12T16:09:08.524Z,6.93
2023-02-12T16:11:37.040Z,6.93
2023-02-12T16:14:40.991Z,6.93
2023-02-12T16:17:28.776Z,6.88
2023-02-12T16:20:00.702Z,6.87
2023-02-12T16:22:37.964Z,6.89
2023-02-12T16:25:15.530Z,6.88
2023-02-12T16:27:51.638Z,6.88
2023-02-12T16:30:34.387Z,6.83
2023-02-12T16:33:02.046Z,6.85
2023-02-12T16:35:34.278Z,6.84
2023-02-12T16:38:29.087Z,6.85
2023-02-12T16:41:20.072Z,6.82
2023-02-12T16:43:48.581Z,6.82
2023-02-12T16:46:17.926Z,6.84
2023-02-12T16:48:52.383Z,6.83
2023-02-12T16:51:30.943Z,6.81
2023-02-12T16:54:00.373Z,6.82
2023-02-12T16:56:39.065Z,6.76
2023-02-12T16:59:05.870Z,6.77
2023-02-12T17:01:35.937Z,6.77
2023-02-12T17:04:06.908Z,6.75
2023-02-12T17:06:33.842Z,6.73
2023-02-12T17:09:00.979Z,6.68
2023-02-12T17:11:29.151Z,6.73
2023-02-12T17:13:56.834Z,6.65
2023-02-12T17:16:32.182Z,6.67
2023-02-12T17:19:00.372Z,6.63
2023-02-12T17:21:38.455Z,6.61
2023-02-12T17:24:20.111Z,6.54
2023-02-12T17:26:47.076Z,6.57
2023-02-12T17:29:13.799Z,6.58
2023-02-12T17:31:40.753Z,6.55
2023-02-12T17:34:08.034Z,6.50
2023-02-12T17:36:35.341Z,6.49
2023-02-12T17:39:04.694Z,6.50
2023-02-12T17:41:31.542Z,6.43
2023-02-12T17:43:58.314Z,6.40
2023-02-12T17:46:27.224Z,6.40
2023-02-12T17:48:54.215Z,6.41
2023-02-12T17:51:21.054Z,6.37
2023-02-12T17:53:47.990Z,6.36
2023-02-12T17:56:17.753Z,6.29
2023-02-12T17:58:47.337Z,6.30
2023-02-12T18:01:16.970Z,6.25
2023-02-12T18:03:43.999Z,6.23
2023-02-12T18:06:14.249Z,6.25
2023-02-12T18:08:41.428Z,6.24
2023-02-12T18:11:10.589Z,6.24
2023-02-12T18:13:38.105Z,6.23
2023-02-12T18:16:09.133Z,6.24
2023-02-12T18:18:36.784Z,6.27
2023-02-12T18:21:08.796Z,6.30
2023-02-12T18:23:35.675Z,6.30
2023-02-12T18:26:06.221Z,6.30
2023-02-12T18:28:33.396Z,6.31
2023-02-12T18:31:00.894Z,6.30
2023-02-12T18:33:28.406Z,6.32
2023-02-12T18:36:04.432Z,6.36
2023-02-12T18:38:31.186Z,6.33
2023-02-12T18:40:59.861Z,6.39
2023-02-12T18:43:27.557Z,6.40
2023-02-12T18:45:55.357Z,6.36
2023-02-12T18:48:22.278Z,6.36
2023-02-12T18:50:51.857Z,6.38
2023-02-12T18:53:19.283Z,6.43
2023-02-12T18:55:46.589Z,6.44
2023-02-12T18:58:13.283Z,6.45
2023-02-12T19:00:40.184Z,6.46
2023-02-12T19:03:06.963Z,6.46
2023-02-12T19:05:33.812Z,6.48
2023-02-12T19:08:00.599Z,6.50
2023-02-12T19:10:27.690Z,6.47
2023-02-12T19:12:55.544Z,6.45
2023-02-12T19:15:22.981Z,6.43
2023-02-12T19:17:49.812Z,6.44
2023-02-12T19:20:17.018Z,6.43
2023-02-12T19:22:45.284Z,6.43
2023-02-12T19:25:13.165Z,6.43
2023-02-12T19:27:39.924Z,6.45
2023-02-12T19:30:08.049Z,6.46
2023-02-12T19:32:36.839Z,6.43
2023-02-12T19:35:04.226Z,6.41
2023-02-12T19:37:32.070Z,6.40
2023-02-12T19:39:58.799Z,6.40
2023-02-12T19:42:25.863Z,6.41
2023-02-12T19:44:52.535Z,6.41
2023-02-12T19:47:19.279Z,6.39
2023-02-12T19:49:46.302Z,6.39
2023-02-12T19:52:13.451Z,6.41
2023-02-12T19:54:40.145Z,6.43
2023-02-12T19:57:09.365Z,6.44
2023-02-12T19:59:36.718Z,6.38
2023-02-12T20:02:04.158Z,6.38
2023-02-12T20:04:31.311Z,6.38
2023-02-12T20:06:59.084Z,6.37
2023-02-12T20:09:26.029Z,6.29
2023-02-12T20:11:53.460Z,6.31
2023-02-12T20:14:23.061Z,6.33
2023-02-12T20:16:51.747Z,6.28
2023-02-12T20:19:22.418Z,6.25
2023-02-12T20:21:54.381Z,6.28
2023-02-12T20:24:26.952Z,6.26
2023-02-12T20:26:54.184Z,6.25
2023-02-12T20:29:21.394Z,6.21
2023-02-12T20:31:48.447Z,6.24
2023-02-12T20:34:16.853Z,6.27
2023-02-12T20:36:48.017Z,6.22
2023-02-12T20:39:17.851Z,6.21
2023-02-12T20:41:44.538Z,6.15
2023-02-12T20:44:16.115Z,6.13
2023-02-12T20:46:54.515Z,6.08
2023-02-12T20:49:25.300Z,6.03
2023-02-12T20:51:52.758Z,6.07
2023-02-12T20:54:19.616Z,6.11
2023-02-12T20:56:46.395Z,6.12
2023-02-12T20:59:13.219Z,6.13
2023-02-12T21:01:41.660Z,6.10
2023-02-12T21:04:13.947Z,6.07
2023-02-12T21:06:41.752Z,6.06
2023-02-12T21:09:12.118Z,6.10
2023-02-12T21:11:40.126Z,6.09
2023-02-12T21:14:24.140Z,6.06
2023-02-12T21:16:52.392Z,6.07
2023-02-12T21:19:19.105Z,6.03
2023-02-12T21:21:46.239Z,6.01
2023-02-12T21:24:16.020Z,6.01
2023-02-12T21:26:42.837Z,5.99
2023-02-12T21:29:12.281Z,6.03
2023-02-12T21:31:41.438Z,6.02
2023-02-12T21:34:09.728Z,6.04
2023-02-12T21:36:38.449Z,6.05
2023-02-12T21:39:07.328Z,6.03
2023-02-12T21:41:36.127Z,6.05
2023-02-12T21:44:08.298Z,6.04
2023-02-12T21:46:35.888Z,6.06
2023-02-12T21:49:03.732Z,6.04
2023-02-12T21:51:39.592Z,6.06
2023-02-12T21:54:08.726Z,6.08
2023-02-12T21:56:39.828Z,6.07
2023-02-12T21:59:09.092Z,6.10
2023-02-12T22:01:39.740Z,6.08
2023-02-12T22:04:07.298Z,6.09
2023-02-12T22:06:40.714Z,6.06
2023-02-12T22:09:09.266Z,6.05
2023-02-12T22:11:37.425Z,6.09
2023-02-12T22:14:04.968Z,6.09
2023-02-12T22:16:31.928Z,6.08
2023-02-12T22:19:00.595Z,6.07
2023-02-12T22:21:30.761Z,6.05
2023-02-12T22:23:57.780Z,6.05
2023-02-12T22:26:26.684Z,6.08
2023-02-12T22:28:56.682Z,6.05
2023-02-12T22:31:26.134Z,6.06
2023-02-12T22:33:55.324Z,6.06
2023-02-12T22:36:22.173Z,6.05
2023-02-12T22:38:49.331Z,6.06
2023-02-12T22:41:16.393Z,6.05
2023-02-12T22:43:43.194Z,6.05
2023-02-12T22:46:11.952Z,6.06
2023-02-12T22:48:38.965Z,6.06
2023-02-12T22:51:11.276Z,6.04
2023-02-12T22:53:38.097Z,6.05
2023-02-12T22:56:06.132Z,6.05
2023-02-12T22:58:34.085Z,6.06
2023-02-12T23:01:15.267Z,6.09
2023-02-12T23:03:42.462Z,6.10
2023-02-12T23:06:13.213Z,6.08
2023-02-12T23:08:40.501Z,6.08
2023-02-12T23:11:08.569Z,6.09
2023-02-12T23:13:36.181Z,6.07
2023-02-12T23:16:03.576Z,6.09
2023-02-12T23:18:31.188Z,6.10
2023-02-12T23:20:58.479Z,6.13
2023-02-12T23:23:25.505Z,6.12
2023-02-12T23:25:55.274Z,6.15
2023-02-12T23:28:22.976Z,6.15
2023-02-12T23:30:51.150Z,6.16
2023-02-12T23:33:19.206Z,6.17
2023-02-12T23:35:46.441Z,6.17
2023-02-12T23:38:13.424Z,6.15
2023-02-12T23:40:40.538Z,6.12
2023-02-12T23:43:07.427Z,6.09
2023-02-12T23:45:34.380Z,6.11
2023-02-12T23:48:01.786Z,6.15
2023-02-12T23:50:30.974Z,6.11
2023-02-12T23:52:58.741Z,6.12
2023-02-12T23:55:25.396Z,6.08
2023-02-12T23:57:52.104Z,6.15
